Time;durP1;ratioP1;P1;durP2;ratioP2;P2;SDS_P1;SDS_P2;PMS_P1;PMS_P2;Temp;Humidity;BMP_temperature;BMP_pressure;BME280_temperature;BME280_humidity;BME280_pressure;Samples;Min_cycle;Max_cycle;Signal;HPM_P1;HPM_P2
2021/04/19 00:02:16;;;;;;;19.97;12.73;;;10.20;1.00;;;;;;5095718;28;20164;-69
2021/04/19 00:04:41;;;;;;;17.93;13.03;;;10.30;1.00;;;;;;5095340;28;20237;-69
2021/04/19 00:07:08;;;;;;;15.97;11.73;;;10.30;1.00;;;;;;5095610;28;20438;-69
2021/04/19 00:09:35;;;;;;;19.73;14.10;;;10.30;1.00;;;;;;5095287;28;20206;-70
2021/04/19 00:12:01;;;;;;;17.57;12.70;;;10.20;1.00;;;;;;5095663;28;20398;-69
2021/04/19 00:14:27;;;;;;;14.67;13.17;;;10.30;1.00;;;;;;5095558;28;20426;-69
2021/04/19 00:16:52;;;;;;;15.57;12.30;;;10.20;1.00;;;;;;5095027;28;20950;-69
2021/04/19 00:19:18;;;;;;;19.57;13.43;;;10.20;1.00;;;;;;5095144;28;20170;-68
2021/04/19 00:21:44;;;;;;;19.57;13.00;;;10.20;1.00;;;;;;5095040;28;20553;-70
2021/04/19 00:24:09;;;;;;;15.40;12.80;;;10.10;1.00;;;;;;5095149;28;20183;-69
2021/04/19 00:26:35;;;;;;;22.93;13.17;;;10.10;1.00;;;;;;5095011;28;20175;-69
2021/04/19 00:29:00;;;;;;;17.93;12.00;;;10.00;1.00;;;;;;5094548;28;20187;-69
2021/04/19 00:31:26;;;;;;;16.10;12.63;;;9.90;1.00;;;;;;5094114;28;20178;-69
2021/04/19 00:33:52;;;;;;;27.87;13.83;;;10.00;1.00;;;;;;5092844;28;20244;-69
2021/04/19 00:36:17;;;;;;;15.30;12.37;;;10.10;1.00;;;;;;5094416;28;20174;-69
2021/04/19 00:38:43;;;;;;;14.60;12.03;;;10.10;1.00;;;;;;5094480;28;20255;-70
2021/04/19 00:41:11;;;;;;;16.60;11.37;;;10.20;1.00;;;;;;5094715;28;20190;-69
2021/04/19 00:43:37;;;;;;;15.33;12.47;;;10.30;1.00;;;;;;5094875;28;20602;-69
2021/04/19 00:46:03;;;;;;;16.80;12.60;;;10.30;1.00;;;;;;5094794;28;20406;-69
2021/04/19 00:48:34;;;;;;;17.33;12.47;;;10.20;1.00;;;;;;5094476;28;20441;-69
2021/04/19 00:51:00;;;;;;;14.20;12.43;;;10.20;1.00;;;;;;5094356;28;20425;-69
2021/04/19 00:53:26;;;;;;;17.50;12.20;;;10.10;1.00;;;;;;5094259;28;20421;-69
2021/04/19 00:55:54;;;;;;;19.40;14.07;;;9.90;1.00;;;;;;5094729;28;20405;-69
2021/04/19 00:58:24;;;;;;;16.90;13.20;;;10.10;1.00;;;;;;5094827;28;20393;-69
2021/04/19 01:00:50;;;;;;;19.07;13.13;;;10.10;1.00;;;;;;5094381;28;20459;-69
2021/04/19 01:03:15;;;;;;;21.93;14.10;;;9.90;1.00;;;;;;5094667;28;20429;-69
2021/04/19 01:05:42;;;;;;;14.80;12.67;;;10.00;1.00;;;;;;5094522;28;20163;-69
2021/04/19 01:08:08;;;;;;;14.37;11.17;;;10.00;1.00;;;;;;5094168;28;20172;-69
2021/04/19 01:10:35;;;;;;;16.33;13.00;;;9.90;1.00;;;;;;5094564;28;20401;-69
2021/04/19 01:13:02;;;;;;;21.27;13.70;;;10.00;1.00;;;;;;5094283;28;20432;-69
2021/04/19 01:15:28;;;;;;;14.87;11.83;;;9.80;1.00;;;;;;5094357;28;20479;-69
2021/04/19 01:17:53;;;;;;;14.17;12.60;;;9.80;1.00;;;;;;5094211;28;20894;-69
2021/04/19 01:20:22;;;;;;;16.50;12.97;;;9.70;1.00;;;;;;5094282;28;20171;-69
2021/04/19 01:22:48;;;;;;;14.67;12.20;;;9.70;1.00;;;;;;5094102;28;20179;-69
2021/04/19 01:25:20;;;;;;;17.93;12.20;;;9.60;1.00;;;;;;5093777;28;20777;-69
2021/04/19 01:27:46;;;;;;;14.30;12.50;;;9.80;1.00;;;;;;5093621;28;20891;-69
2021/04/19 01:30:14;;;;;;;17.67;13.17;;;9.80;1.00;;;;;;5094562;28;20471;-70
2021/04/19 01:32:40;;;;;;;15.20;11.77;;;9.70;1.00;;;;;;5095129;28;20167;-69
2021/04/19 01:35:06;;;;;;;19.07;14.50;;;9.60;1.00;;;;;;5094877;28;20409;-69
2021/04/19 01:37:31;;;;;;;18.53;12.40;;;9.70;1.00;;;;;;5093751;28;20168;-69
2021/04/19 01:39:57;;;;;;;15.40;11.63;;;9.70;1.00;;;;;;5093534;28;20409;-69
2021/04/19 01:42:22;;;;;;;13.13;11.43;;;9.70;1.00;;;;;;5093837;28;20171;-69
2021/04/19 01:44:48;;;;;;;16.00;13.70;;;9.70;1.00;;;;;;5093131;28;20191;-69
2021/04/19 01:47:14;;;;;;;19.93;13.50;;;9.70;1.00;;;;;;5093609;28;20663;-68
2021/04/19 01:49:39;;;;;;;16.00;11.70;;;9.60;1.00;;;;;;5093332;28;20252;-69
2021/04/19 01:52:05;;;;;;;16.63;12.90;;;9.60;1.00;;;;;;5093373;28;20176;-69
2021/04/19 01:54:31;;;;;;;17.00;13.90;;;9.60;1.00;;;;;;5093644;28;20202;-69
2021/04/19 01:56:56;;;;;;;16.93;13.80;;;9.60;1.00;;;;;;5093275;28;20800;-69
2021/04/19 01:59:24;;;;;;;16.73;12.97;;;9.70;1.00;;;;;;5093498;28;20258;-69
2021/04/19 02:02:23;;;;;;;19.93;13.63;;;9.50;1.00;;;;;;5093485;28;20167;-69
2021/04/19 02:05:03;;;;;;;22.80;14.67;;;9.40;1.00;;;;;;5078138;28;20441;-69
2021/04/19 02:07:51;;;;;;;17.00;13.20;;;9.30;1.00;;;;;;5093548;28;20390;-68
2021/04/19 02:10:39;;;;;;;19.97;13.67;;;9.30;15.20;;;;;;5093023;28;20464;-69
2021/04/19 02:13:10;;;;;;;14.83;11.80;;;9.30;36.10;;;;;;5093254;28;20433;-69
2021/04/19 02:15:51;;;;;;;18.30;13.30;;;9.40;13.50;;;;;;5093624;28;20382;-69
2021/04/19 02:18:42;;;;;;;65.67;50.00;;;9.30;21.20;;;;;;5093350;28;20400;-69
2021/04/19 02:21:13;;;;;;;19.67;15.10;;;9.40;14.70;;;;;;5093675;28;20359;-69
2021/04/19 02:23:47;;;;;;;18.17;14.53;;;9.40;2.80;;;;;;5093007;28;20763;-69
2021/04/19 02:26:30;;;;;;;16.40;13.07;;;9.30;11.40;;;;;;5092883;28;20389;-69
2021/04/19 02:29:13;;;;;;;17.93;12.50;;;9.40;53.40;;;;;;5093174;28;20433;-69
2021/04/19 02:31:43;;;;;;;19.67;13.10;;;9.30;32.20;;;;;;5092939;28;20413;-69
2021/04/19 02:34:14;;;;;;;15.90;12.80;;;9.20;55.40;;;;;;5092859;28;20421;-69
2021/04/19 02:36:52;;;;;;;22.33;14.77;;;9.40;30.00;;;;;;5093224;28;20406;-69
2021/04/19 02:39:18;;;;;;;21.47;14.90;;;9.30;32.50;;;;;;5092733;28;20422;-69
2021/04/19 02:41:47;;;;;;;17.90;15.17;;;9.40;16.00;;;;;;5091803;28;20890;-69
2021/04/19 02:44:14;;;;;;;18.60;13.57;;;9.40;20.30;;;;;;5092773;28;20424;-69
2021/04/19 02:46:40;;;;;;;16.63;13.77;;;9.40;34.30;;;;;;5092702;28;20412;-70
2021/04/19 02:49:07;;;;;;;23.40;15.87;;;9.40;46.10;;;;;;5092667;28;20867;-69
2021/04/19 02:51:33;;;;;;;16.87;14.23;;;9.50;36.10;;;;;;5092714;28;20887;-69
2021/04/19 02:54:01;;;;;;;17.77;14.00;;;9.50;26.90;;;;;;5092549;28;20442;-69
2021/04/19 02:56:30;;;;;;;18.23;14.30;;;9.40;37.50;;;;;;5095067;28;20993;-69
2021/04/19 02:58:58;;;;;;;19.23;14.77;;;9.30;28.00;;;;;;5096670;28;20417;-69
2021/04/19 03:01:30;;;;;;;18.83;14.77;;;9.20;70.60;;;;;;5096506;28;20867;-69
2021/04/19 03:03:59;;;;;;;19.50;15.50;;;9.20;99.90;;;;;;5094984;28;20516;-69
2021/04/19 03:06:26;;;;;;;27.70;18.37;;;9.20;99.90;;;;;;5096536;28;20415;-69
2021/04/19 03:08:57;;;;;;;20.00;15.17;;;9.30;99.90;;;;;;5094709;28;20971;-69
2021/04/19 03:11:30;;;;;;;16.63;14.80;;;9.20;99.90;;;;;;5096270;28;20813;-69
2021/04/19 03:13:58;;;;;;;18.23;15.33;;;9.10;99.90;;;;;;5096559;28;20433;-69
2021/04/19 03:16:26;;;;;;;18.43;15.27;;;9.20;99.90;;;;;;5096039;28;20749;-69
2021/04/19 03:18:53;;;;;;;19.57;15.90;;;9.10;99.90;;;;;;5096377;28;20413;-69
2021/04/19 03:21:24;;;;;;;19.90;15.47;;;9.10;99.90;;;;;;5096089;28;20547;-69
2021/04/19 03:23:53;;;;;;;17.80;15.17;;;9.00;99.90;;;;;;5096113;28;20474;-69
2021/04/19 03:26:22;;;;;;;18.50;14.50;;;8.90;99.90;;;;;;5096315;28;20417;-69
2021/04/19 03:28:49;;;;;;;20.57;16.47;;;8.80;99.90;;;;;;5096179;28;20469;-69
2021/04/19 03:31:38;;;;;;;20.63;16.30;;;8.90;99.90;;;;;;5095955;28;20513;-69
2021/04/19 03:34:11;;;;;;;19.20;14.50;;;9.10;99.90;;;;;;5096006;28;20413;-69
2021/04/19 03:36:38;;;;;;;23.77;16.27;;;9.00;99.90;;;;;;5096108;28;20724;-69
2021/04/19 03:39:05;;;;;;;25.33;18.87;;;8.90;99.90;;;;;;5095972;28;20885;-69
2021/04/19 03:41:35;;;;;;;20.80;16.63;;;9.00;1.00;;;;;;5095883;28;20418;-69
2021/04/19 03:44:01;;;;;;;22.60;17.77;;;9.10;1.00;;;;;;5095674;28;20514;-69
2021/04/19 03:46:30;;;;;;;21.00;17.93;;;9.10;99.90;;;;;;5095513;28;20406;-69
2021/04/19 03:49:02;;;;;;;21.73;17.70;;;9.00;1.00;;;;;;5095544;28;20953;-69
2021/04/19 03:51:30;;;;;;;22.43;19.50;;;9.10;1.00;;;;;;5094396;28;20818;-69
2021/04/19 03:53:58;;;;;;;22.27;18.23;;;9.00;1.00;;;;;;5095440;28;20481;-69
2021/04/19 03:56:26;;;;;;;19.90;16.70;;;9.20;1.00;;;;;;5096145;28;20488;-69
2021/04/19 03:58:52;;;;;;;25.43;18.07;;;9.10;1.00;;;;;;5095630;28;20448;-69
2021/04/19 04:01:18;;;;;;;22.23;19.73;;;9.20;1.00;;;;;;5095275;28;20431;-69
2021/04/19 04:03:46;;;;;;;27.47;19.80;;;9.10;1.00;;;;;;5095539;28;20524;-69
2021/04/19 04:06:13;;;;;;;20.90;18.70;;;9.30;1.00;;;;;;5095417;28;20423;-69
2021/04/19 04:08:40;;;;;;;22.07;17.30;;;9.40;1.00;;;;;;5094926;28;20548;-69
2021/04/19 04:11:08;;;;;;;22.10;18.03;;;9.30;1.00;;;;;;5095083;28;20398;-69
2021/04/19 04:13:35;;;;;;;22.50;18.30;;;9.30;1.00;;;;;;5094909;28;20456;-69
2021/04/19 04:16:00;;;;;;;19.70;16.50;;;9.30;99.90;;;;;;5094166;28;20438;-69
2021/04/19 04:18:27;;;;;;;25.13;19.97;;;9.40;99.90;;;;;;5095003;28;20501;-69
2021/04/19 04:20:52;;;;;;;20.53;17.17;;;9.50;1.00;;;;;;5095979;28;20171;-70
2021/04/19 04:23:19;;;;;;;21.67;17.40;;;9.40;1.00;;;;;;5095089;28;20826;-69
2021/04/19 04:25:46;;;;;;;22.27;17.40;;;9.40;99.90;;;;;;5095013;28;20410;-69
2021/04/19 04:28:12;;;;;;;19.30;16.23;;;9.30;99.90;;;;;;5094925;28;20894;-69
2021/04/19 04:30:38;;;;;;;23.07;18.40;;;9.30;1.00;;;;;;5094982;28;20416;-69
2021/04/19 04:33:05;;;;;;;24.93;18.47;;;9.20;1.00;;;;;;5095021;28;20429;-69
2021/04/19 04:35:32;;;;;;;25.10;17.93;;;9.20;1.00;;;;;;5093415;28;20409;-69
2021/04/19 04:37:58;;;;;;;22.90;18.63;;;9.30;1.00;;;;;;5094983;28;20429;-69
2021/04/19 04:40:25;;;;;;;22.93;19.00;;;9.30;1.00;;;;;;5094961;28;20954;-69
2021/04/19 04:42:55;;;;;;;22.00;19.20;;;9.40;1.00;;;;;;5094429;28;20420;-69
2021/04/19 04:45:21;;;;;;;21.13;18.47;;;9.50;1.00;;;;;;5094736;28;20402;-69
2021/04/19 04:47:59;;;;;;;21.73;18.70;;;9.30;1.00;;;;;;5094381;28;20807;-72
2021/04/19 04:50:41;;;;;;;25.93;20.10;;;9.50;1.00;;;;;;5094407;28;20187;-69
2021/04/19 04:53:13;;;;;;;21.40;18.30;;;9.60;1.00;;;;;;5094331;28;20432;-68
2021/04/19 04:55:39;;;;;;;21.07;18.10;;;9.60;1.00;;;;;;5092957;28;20956;-68
2021/04/19 04:58:06;;;;;;;26.30;20.50;;;9.50;1.00;;;;;;5094250;28;20511;-69
2021/04/19 05:00:32;;;;;;;23.83;19.07;;;9.30;1.00;;;;;;5093971;28;20420;-70
2021/04/19 05:02:58;;;;;;;28.10;20.80;;;9.20;99.90;;;;;;5093786;28;20422;-69
2021/04/19 05:05:24;;;;;;;28.10;20.20;;;9.20;99.90;;;;;;5094048;28;20409;-69
2021/04/19 05:07:51;;;;;;;24.90;19.07;;;9.20;99.90;;;;;;5094120;28;20886;-69
2021/04/19 05:10:18;;;;;;;23.80;19.67;;;9.10;99.90;;;;;;5093667;28;20473;-69
2021/04/19 05:12:44;;;;;;;22.97;19.57;;;9.00;39.90;;;;;;5094069;28;20479;-69
2021/04/19 05:15:13;;;;;;;25.47;20.27;;;9.00;1.00;;;;;;5094081;28;20488;-69
2021/04/19 05:17:43;;;;;;;28.87;21.73;;;9.00;99.90;;;;;;5093793;28;20624;-69
2021/04/19 05:20:11;;;;;;;27.97;20.90;;;9.00;1.00;;;;;;5094301;28;20727;-69
2021/04/19 05:22:38;;;;;;;25.50;20.23;;;9.10;1.00;;;;;;5092426;28;20808;-69
2021/04/19 05:25:05;;;;;;;28.13;20.30;;;9.10;1.00;;;;;;5094630;28;20412;-69
2021/04/19 05:27:31;;;;;;;24.10;20.10;;;9.10;1.00;;;;;;5093875;28;20507;-69
2021/04/19 05:29:58;;;;;;;29.17;22.17;;;9.00;30.70;;;;;;5093866;28;20453;-69
2021/04/19 05:32:24;;;;;;;27.83;21.70;;;9.20;99.90;;;;;;5092555;28;20520;-69
2021/04/19 05:34:50;;;;;;;24.73;20.77;;;9.40;99.90;;;;;;5093639;28;20472;-69
2021/04/19 05:37:17;;;;;;;25.37;21.13;;;9.30;99.90;;;;;;5092309;28;20443;-69
2021/04/19 05:39:44;;;;;;;29.90;22.20;;;9.30;99.90;;;;;;5093872;28;20413;-69
2021/04/19 05:42:11;;;;;;;24.63;19.60;;;9.30;99.90;;;;;;5093595;28;20747;-69
2021/04/19 05:44:37;;;;;;;29.20;19.57;;;9.30;99.90;;;;;;5093718;28;20452;-69
2021/04/19 05:47:03;;;;;;;23.20;19.40;;;9.30;99.90;;;;;;5093667;28;20405;-70
2021/04/19 05:49:29;;;;;;;24.60;19.27;;;9.30;99.90;;;;;;5093601;28;20456;-69
2021/04/19 05:52:01;;;;;;;24.40;19.03;;;9.30;99.90;;;;;;5092065;28;20773;-69
2021/04/19 05:54:27;;;;;;;27.20;19.80;;;9.30;99.90;;;;;;5093422;28;20660;-69
2021/04/19 05:57:01;;;;;;;22.93;19.47;;;9.50;99.90;;;;;;5093679;28;20463;-69
2021/04/19 05:59:38;;;;;;;22.87;18.50;;;9.50;99.90;;;;;;5091851;28;20511;-69
2021/04/19 06:02:07;;;;;;;23.00;19.03;;;9.50;99.90;;;;;;5093766;28;20396;-69
2021/04/19 06:05:06;;;;;;;23.83;17.47;;;9.40;99.90;;;;;;5093593;28;20433;-69
2021/04/19 06:07:43;;;;;;;21.00;17.43;;;9.40;99.90;;;;;;5049723;28;20561;-69
2021/04/19 06:10:14;;;;;;;24.27;17.97;;;9.40;99.90;;;;;;5093123;28;20468;-71
2021/04/19 06:12:47;;;;;;;22.03;18.43;;;9.50;99.90;;;;;;5093261;28;20386;-69
2021/04/19 06:15:14;;;;;;;25.30;17.90;;;9.50;99.90;;;;;;5093134;28;20759;-68
2021/04/19 06:17:52;;;;;;;21.33;17.83;;;9.40;99.90;;;;;;5091356;28;20406;-69
2021/04/19 06:20:19;;;;;;;17.93;15.30;;;9.60;99.90;;;;;;5093219;28;20890;-69
2021/04/19 06:22:49;;;;;;;19.57;15.20;;;9.60;99.90;;;;;;5093289;28;20417;-69
2021/04/19 06:25:16;;;;;;;19.30;14.43;;;9.70;99.90;;;;;;5091393;28;20466;-69
2021/04/19 06:27:42;;;;;;;22.93;18.47;;;9.70;5.90;;;;;;5093214;28;20422;-69
2021/04/19 06:30:18;;;;;;;22.17;18.83;;;9.60;1.00;;;;;;5093759;28;20449;-70
2021/04/19 06:32:44;;;;;;;24.70;19.87;;;9.60;1.00;;;;;;5097365;28;20195;-70
2021/04/19 06:35:12;;;;;;;21.67;18.20;;;9.50;1.00;;;;;;5097191;28;20458;-70
2021/04/19 06:37:37;;;;;;;22.50;18.57;;;9.40;68.00;;;;;;5097957;28;20412;-69
2021/04/19 06:40:05;;;;;;;26.50;19.47;;;9.60;91.00;;;;;;5097653;28;20413;-70
2021/04/19 06:42:32;;;;;;;23.40;20.00;;;9.50;1.00;;;;;;5097475;28;20295;-69
2021/04/19 06:45:00;;;;;;;27.53;20.17;;;9.50;1.00;;;;;;5096740;28;20429;-70
2021/04/19 06:47:26;;;;;;;27.30;19.63;;;9.60;1.00;;;;;;5096873;28;20465;-69
2021/04/19 06:49:53;;;;;;;23.63;18.60;;;9.50;1.00;;;;;;5096493;28;20479;-68
2021/04/19 06:52:20;;;;;;;27.30;18.90;;;9.50;1.00;;;;;;5096109;28;20424;-69
2021/04/19 06:54:45;;;;;;;20.37;18.17;;;9.40;1.00;;;;;;5095133;28;20478;-70
2021/04/19 06:57:14;;;;;;;28.63;19.57;;;9.50;38.20;;;;;;5096226;28;20399;-70
2021/04/19 06:59:44;;;;;;;23.73;19.70;;;9.50;6.50;;;;;;5095000;28;20176;-70
2021/04/19 07:02:19;;;;;;;20.53;17.07;;;9.40;1.00;;;;;;5097107;28;20914;-70
2021/04/19 07:04:49;;;;;;;23.80;19.30;;;9.40;1.00;;;;;;5098993;28;20436;-70
2021/04/19 07:07:17;;;;;;;23.00;17.47;;;9.40;1.00;;;;;;5096931;28;20402;-69
2021/04/19 07:09:46;;;;;;;22.07;17.70;;;9.30;12.80;;;;;;5096171;28;20464;-70
2021/04/19 07:12:17;;;;;;;20.70;16.67;;;9.40;41.20;;;;;;5096121;28;20401;-70
2021/04/19 07:14:47;;;;;;;23.13;16.63;;;9.50;28.80;;;;;;5094722;28;20566;-70
2021/04/19 07:17:13;;;;;;;20.77;15.23;;;9.60;1.00;;;;;;5095977;28;20404;-69
2021/04/19 07:19:39;;;;;;;19.93;15.10;;;9.60;1.00;;;;;;5095833;28;20405;-70
2021/04/19 07:22:05;;;;;;;22.07;15.27;;;9.40;1.00;;;;;;5096193;28;20174;-70
2021/04/19 07:24:30;;;;;;;20.13;15.70;;;9.50;1.00;;;;;;5095704;28;20198;-69
2021/04/19 07:26:57;;;;;;;22.87;16.80;;;9.10;1.00;;;;;;5095634;28;20412;-70
2021/04/19 07:29:26;;;;;;;20.67;15.80;;;9.00;1.00;;;;;;5095503;28;20663;-70
2021/04/19 07:31:53;;;;;;;19.77;15.00;;;8.90;1.00;;;;;;5095513;28;20426;-70
2021/04/19 07:34:27;;;;;;;20.13;17.50;;;9.00;56.90;;;;;;5095078;28;20428;-70
2021/04/19 07:37:00;;;;;;;25.03;17.27;;;9.40;99.90;;;;;;5095658;28;20411;-70
2021/04/19 07:39:33;;;;;;;29.63;18.47;;;9.60;73.20;;;;;;5095078;28;20471;-69
2021/04/19 07:42:01;;;;;;;26.37;16.67;;;9.50;1.00;;;;;;5095627;28;20361;-70
2021/04/19 07:44:40;;;;;;;21.37;17.07;;;9.60;1.00;;;;;;5095545;28;20951;-68
2021/04/19 07:47:31;;;;;;;23.60;16.00;;;9.60;1.00;;;;;;5095416;28;20450;-69
2021/04/19 07:49:59;;;;;;;22.33;17.10;;;9.80;1.00;;;;;;5095497;28;20979;-70
2021/04/19 07:52:26;;;;;;;26.63;17.87;;;9.80;99.90;;;;;;5095516;28;20402;-70
2021/04/19 07:55:05;;;;;;;23.70;18.53;;;9.70;99.90;;;;;;5095080;28;20451;-69
2021/04/19 07:57:32;;;;;;;22.20;16.97;;;9.60;99.90;;;;;;5094813;28;20428;-69
2021/04/19 07:59:57;;;;;;;20.83;16.13;;;9.70;99.90;;;;;;5095960;28;20406;-69
2021/04/19 08:02:23;;;;;;;22.80;16.57;;;9.60;99.90;;;;;;5094867;28;20415;-69
2021/04/19 08:04:50;;;;;;;19.47;16.27;;;9.70;31.50;;;;;;5097488;28;20196;-70
2021/04/19 08:07:21;;;;;;;22.30;16.30;;;9.80;1.00;;;;;;5095876;28;20246;-69
2021/04/19 08:09:54;;;;;;;18.80;16.50;;;9.80;1.00;;;;;;5095367;28;20453;-69
2021/04/19 08:12:34;;;;;;;25.10;17.80;;;9.90;99.90;;;;;;5094846;28;20402;-69
2021/04/19 08:15:01;;;;;;;25.60;16.90;;;9.70;99.90;;;;;;5094864;28;20793;-70
2021/04/19 08:17:31;;;;;;;21.23;17.43;;;9.80;99.90;;;;;;5094656;28;20403;-69
2021/04/19 08:19:57;;;;;;;24.47;15.17;;;9.90;99.90;;;;;;5096670;28;20553;-69
2021/04/19 08:22:29;;;;;;;20.73;17.13;;;10.10;1.00;;;;;;5096320;28;20417;-69
2021/04/19 08:25:14;;;;;;;20.70;15.30;;;10.00;99.90;;;;;;5094974;28;20477;-69
2021/04/19 08:27:41;;;;;;;20.07;15.20;;;10.00;99.90;;;;;;5094967;28;20754;-69
2021/04/19 08:30:09;;;;;;;21.03;14.80;;;10.00;1.00;;;;;;5094618;28;20850;-70
2021/04/19 08:32:35;;;;;;;20.20;13.07;;;10.20;99.90;;;;;;5094241;28;20372;-71
2021/04/19 08:35:02;;;;;;;23.03;15.60;;;10.40;99.90;;;;;;5093024;28;20395;-70
2021/04/19 08:37:29;;;;;;;20.93;15.43;;;10.50;99.90;;;;;;5094191;28;20436;-71
2021/04/19 08:39:57;;;;;;;21.00;14.73;;;10.50;99.90;;;;;;5094231;28;20402;-71
2021/04/19 08:42:25;;;;;;;17.40;13.83;;;10.60;1.00;;;;;;5093991;28;20441;-71
2021/04/19 08:44:56;;;;;;;15.20;12.23;;;10.50;1.00;;;;;;5094021;28;20443;-70
2021/04/19 08:47:27;;;;;;;15.50;13.90;;;10.70;1.00;;;;;;5094497;28;20480;-70
2021/04/19 08:49:58;;;;;;;14.00;11.60;;;10.80;1.00;;;;;;5094554;28;20467;-70
2021/04/19 08:52:24;;;;;;;15.70;12.60;;;10.70;99.90;;;;;;5094364;28;20382;-71
2021/04/19 08:54:50;;;;;;;20.63;13.37;;;10.60;1.00;;;;;;5093280;28;20938;-68
2021/04/19 08:57:16;;;;;;;17.03;13.43;;;10.70;99.90;;;;;;5094176;28;20484;-69
2021/04/19 08:59:45;;;;;;;15.27;12.40;;;10.60;99.90;;;;;;5093765;28;20398;-69
2021/04/19 09:02:16;;;;;;;17.50;13.27;;;10.60;1.00;;;;;;5093874;28;20651;-69
2021/04/19 09:05:00;;;;;;;15.07;10.60;;;10.80;99.90;;;;;;5093381;28;20429;-69
2021/04/19 09:07:30;;;;;;;16.23;12.50;;;10.90;99.90;;;;;;5094039;28;20389;-69
2021/04/19 09:09:56;;;;;;;17.73;12.90;;;10.70;99.90;;;;;;5094079;28;20449;-69
2021/04/19 09:12:23;;;;;;;16.93;13.10;;;10.60;99.90;;;;;;5093604;28;20409;-69
2021/04/19 09:14:50;;;;;;;17.83;12.80;;;10.90;99.90;;;;;;5093544;28;20233;-69
2021/04/19 09:17:27;;;;;;;14.93;13.10;;;11.00;99.90;;;;;;5093504;28;20402;-69
2021/04/19 09:19:59;;;;;;;15.90;13.10;;;11.00;23.10;;;;;;5092448;28;20408;-68
2021/04/19 09:22:26;;;;;;;14.63;13.10;;;10.90;1.00;;;;;;5093609;28;20825;-69
2021/04/19 09:25:01;;;;;;;18.47;13.30;;;10.80;1.00;;;;;;5093180;28;20910;-68
2021/04/19 09:27:48;;;;;;;16.63;14.03;;;10.90;1.00;;;;;;5093407;28;20404;-69
2021/04/19 09:30:23;;;;;;;17.90;13.83;;;10.70;99.90;;;;;;5093678;28;20455;-70
2021/04/19 09:33:07;;;;;;;15.23;13.50;;;10.80;99.90;;;;;;5092264;28;20948;-70
2021/04/19 09:35:39;;;;;;;15.20;13.60;;;10.90;1.00;;;;;;5093957;28;20884;-69
2021/04/19 09:38:06;;;;;;;24.23;15.30;;;11.10;1.00;;;;;;5092924;28;20424;-69
2021/04/19 09:40:51;;;;;;;30.27;24.57;;;11.10;1.00;;;;;;5093517;28;20405;-70
2021/04/19 09:43:37;;;;;;;21.93;18.43;;;10.80;67.00;;;;;;5093758;28;20463;-69
2021/04/19 09:46:06;;;;;;;16.03;13.53;;;11.20;99.90;;;;;;5093514;28;20401;-69
2021/04/19 09:48:31;;;;;;;14.37;12.97;;;11.30;1.00;;;;;;5091559;28;20414;-69
2021/04/19 09:51:04;;;;;;;15.67;13.53;;;10.90;1.00;;;;;;5093087;28;20395;-69
2021/04/19 09:53:31;;;;;;;16.60;12.30;;;11.00;1.00;;;;;;5092846;28;20187;-70
2021/04/19 09:55:57;;;;;;;15.70;12.23;;;11.70;99.90;;;;;;5092852;28;20866;-68
2021/04/19 09:58:23;;;;;;;16.03;11.50;;;11.70;99.90;;;;;;5092862;28;20405;-69
2021/04/19 10:00:59;;;;;;;29.67;15.17;;;12.00;99.90;;;;;;5092910;28;20405;-69
2021/04/19 10:03:25;;;;;;;17.20;15.20;;;11.90;99.90;;;;;;5092584;28;20763;-69
2021/04/19 10:05:53;;;;;;;16.87;14.90;;;11.90;1.00;;;;;;5092718;28;20409;-69
2021/04/19 10:08:19;;;;;;;17.37;13.67;;;12.20;1.00;;;;;;5092641;28;20328;-69
2021/04/19 10:10:54;;;;;;;21.27;13.87;;;11.80;99.90;;;;;;5092198;28;20498;-69
2021/04/19 10:13:30;;;;;;;17.00;13.00;;;12.10;99.90;;;;;;5092648;28;20449;-70
2021/04/19 10:16:06;;;;;;;13.90;12.50;;;12.10;99.90;;;;;;5092891;28;20468;-69
2021/04/19 10:18:33;;;;;;;12.20;10.30;;;12.20;99.90;;;;;;5092778;28;20415;-70
2021/04/19 10:20:59;;;;;;;15.27;12.03;;;12.50;99.90;;;;;;5093085;28;20401;-70
2021/04/19 10:23:33;;;;;;;15.50;13.10;;;12.60;99.90;;;;;;5092039;28;20459;-69
2021/04/19 10:25:59;;;;;;;15.00;11.80;;;12.70;99.90;;;;;;5092571;28;20402;-69
2021/04/19 10:28:48;;;;;;;14.23;10.07;;;12.70;99.90;;;;;;5092847;28;20409;-70
2021/04/19 10:31:16;;;;;;;17.23;13.23;;;12.70;1.00;;;;;;5092591;28;20382;-69
2021/04/19 10:33:44;;;;;;;14.70;12.00;;;13.00;1.00;;;;;;5092212;28;20441;-70
2021/04/19 10:36:26;;;;;;;16.77;13.20;;;12.90;1.00;;;;;;5092496;28;20404;-69
2021/04/19 10:39:09;;;;;;;16.13;14.00;;;13.10;1.00;;;;;;5092382;28;20781;-69
2021/04/19 10:41:37;;;;;;;13.63;11.27;;;13.50;1.00;;;;;;5092582;28;20398;-69
2021/04/19 10:44:08;;;;;;;18.13;13.93;;;13.90;1.00;;;;;;5092507;28;20827;-69
2021/04/19 10:46:36;;;;;;;19.43;15.90;;;14.30;1.00;;;;;;5090715;28;20401;-69
2021/04/19 10:49:05;;;;;;;22.27;15.00;;;14.20;1.00;;;;;;5091840;28;20620;-70
2021/04/19 10:51:35;;;;;;;17.40;15.07;;;13.70;1.00;;;;;;5091087;28;20431;-69
2021/04/19 10:54:06;;;;;;;19.57;16.07;;;14.00;1.00;;;;;;5091953;28;20458;-70
2021/04/19 10:56:33;;;;;;;18.80;15.30;;;14.00;1.00;;;;;;5092142;28;20733;-70
2021/04/19 10:59:00;;;;;;;17.23;15.40;;;13.80;1.00;;;;;;5092393;28;20434;-69
2021/04/19 11:01:27;;;;;;;16.70;14.87;;;13.50;1.00;;;;;;5092322;28;20418;-70
2021/04/19 11:03:53;;;;;;;17.60;13.90;;;13.60;1.00;;;;;;5092166;28;20424;-70
2021/04/19 11:06:20;;;;;;;15.20;12.97;;;13.00;1.00;;;;;;5092594;28;20436;-69
2021/04/19 11:08:45;;;;;;;21.03;14.63;;;13.00;1.00;;;;;;5091879;28;20545;-69
2021/04/19 11:11:23;;;;;;;21.00;15.10;;;12.70;1.00;;;;;;5092638;28;20508;-69
2021/04/19 11:13:50;;;;;;;18.30;14.37;;;13.40;1.00;;;;;;5092025;28;20177;-69
2021/04/19 11:16:23;;;;;;;19.77;16.60;;;13.80;1.00;;;;;;5093329;28;20805;-68
2021/04/19 11:18:49;;;;;;;16.80;14.23;;;13.60;1.00;;;;;;5095845;28;20819;-71
2021/04/19 11:21:35;;;;;;;21.53;15.20;;;13.20;1.00;;;;;;5095584;28;20506;-69
2021/04/19 11:24:10;;;;;;;23.20;17.53;;;13.80;1.00;;;;;;5094059;28;20435;-69
2021/04/19 11:26:36;;;;;;;19.93;16.40;;;13.90;1.00;;;;;;5095719;28;20407;-69
2021/04/19 11:29:02;;;;;;;22.77;16.50;;;13.50;1.00;;;;;;5095380;28;20450;-69
2021/04/19 11:31:41;;;;;;;17.97;15.80;;;13.40;1.00;;;;;;5095389;28;20413;-69
2021/04/19 11:34:15;;;;;;;26.43;17.60;;;13.60;1.00;;;;;;5095553;28;20437;-71
2021/04/19 11:36:46;;;;;;;22.77;18.30;;;14.00;1.00;;;;;;5093558;28;20428;-69
2021/04/19 11:39:19;;;;;;;25.90;18.20;;;13.70;1.00;;;;;;5093314;28;20812;-69
2021/04/19 11:41:48;;;;;;;22.93;18.00;;;13.40;1.00;;;;;;5093065;28;20395;-69
2021/04/19 11:44:14;;;;;;;25.10;20.30;;;13.40;1.00;;;;;;5093528;28;20474;-69
2021/04/19 11:46:47;;;;;;;22.00;18.50;;;13.30;1.00;;;;;;5093124;28;20402;-68
2021/04/19 11:49:17;;;;;;;25.40;18.97;;;13.30;1.00;;;;;;5092717;28;20444;-69
2021/04/19 11:51:44;;;;;;;19.47;17.30;;;14.60;1.00;;;;;;5094561;28;20430;-69
2021/04/19 11:54:11;;;;;;;24.07;17.47;;;14.40;1.00;;;;;;5093439;28;20439;-68
2021/04/19 11:56:37;;;;;;;16.50;14.70;;;14.00;1.00;;;;;;5094718;28;21002;-69
2021/04/19 11:59:03;;;;;;;19.33;17.20;;;14.20;1.00;;;;;;5095195;28;20407;-69
2021/04/19 12:01:29;;;;;;;21.63;17.73;;;14.20;1.00;;;;;;5094547;28;20488;-69
2021/04/19 12:03:55;;;;;;;19.70;16.17;;;14.50;1.00;;;;;;5094589;28;20430;-68
2021/04/19 12:06:22;;;;;;;19.73;15.77;;;14.50;1.00;;;;;;5094832;28;20413;-68
2021/04/19 12:08:49;;;;;;;16.30;14.17;;;14.60;1.00;;;;;;5092990;28;20990;-68
2021/04/19 12:11:21;;;;;;;15.80;14.00;;;14.40;1.00;;;;;;5094562;28;20915;-68
2021/04/19 12:13:48;;;;;;;18.13;15.27;;;14.00;1.00;;;;;;5094702;28;20420;-69
2021/04/19 12:16:14;;;;;;;21.87;15.17;;;14.30;1.00;;;;;;5094513;28;20813;-69
2021/04/19 12:18:39;;;;;;;18.43;14.63;;;14.40;1.00;;;;;;5094692;28;20457;-69
2021/04/19 12:21:05;;;;;;;25.93;14.87;;;14.40;1.00;;;;;;5094550;28;20171;-70
2021/04/19 12:23:31;;;;;;;20.80;15.80;;;14.30;1.00;;;;;;5094352;28;20190;-69
2021/04/19 12:25:58;;;;;;;16.70;15.00;;;14.10;1.00;;;;;;5094424;28;20402;-69
2021/04/19 12:28:24;;;;;;;17.90;15.00;;;14.20;1.00;;;;;;5094601;28;20167;-70
2021/04/19 12:30:51;;;;;;;21.80;16.13;;;14.20;1.00;;;;;;5094670;28;20799;-69
2021/04/19 12:33:17;;;;;;;18.67;16.07;;;13.70;1.00;;;;;;5092778;28;20484;-69
2021/04/19 12:35:43;;;;;;;20.37;16.10;;;13.70;1.00;;;;;;5094228;28;20461;-69
2021/04/19 12:38:09;;;;;;;23.60;17.67;;;13.50;1.00;;;;;;5094230;28;20403;-70
2021/04/19 12:40:35;;;;;;;19.80;16.07;;;13.70;1.00;;;;;;5094290;28;20422;-69
2021/04/19 12:43:00;;;;;;;23.33;17.73;;;13.80;1.00;;;;;;5094320;28;20192;-70
2021/04/19 12:45:31;;;;;;;19.30;17.10;;;14.00;1.00;;;;;;5094204;28;20913;-70
2021/04/19 12:48:01;;;;;;;23.27;16.17;;;13.90;1.00;;;;;;5094473;28;20160;-70
2021/04/19 12:50:27;;;;;;;22.13;18.27;;;14.10;1.00;;;;;;5093915;28;20454;-70